Pagina principale
METAR-TAF:

METAR-TAF

Aeroporti :

Fiume, Croazia

latitudine: 45-13N, longitudine: 014-35E, altezza: 85 m

Osservazione

Il bollettino è stato emesso 12 minuti fa, alle 03:00 UTC
Vento 4 kt da est/sud-est
Temperature 10°C
Umidità 82%
Pressione 1019 hPa
Visibilità 10 km o più
Nubi sparse ad un'altezza di 5000 ft

METAR: LDRI 240300Z 12004KT 9999 SCT050 10/07 Q1019

Ora: 04:12 (03:12 UTC)

Previsione

Il bollettino è stato emesso 3 ore e 47 minuti fa, alle 23:25 UTC
Previsione valida dal 24 alle 00 UTC al 25 alle 00 UTC
Vento 5 kt da sud-est
Visibilità 10 km o più
Nubi sparse ad un'altezza di 3500 ft

TAF: LDRI 232325Z 2400/2500 13005KT 9999 SCT035 TX16/2413Z TN06/2405Z

Osservazioni e previsioni meteorologiche di più di 4000 aeroporti (messaggi METAR e TAF).

Le stazioni disponibili sono rappresentate dai dischi gialli e rossi sulla carta.

Puntare il mouse per vedere il nome della stazione.

Clicca sopra per visualizzare le osservazioni e previsioni meteorologiche.

Per cambiare la mappa : fare clic sui pulsanti verdi con una croce nera per ingrandire, il pulsante verde con un trattino per diminuire, o sulla freccia verde per le mappe adiacenti.


METAR-TAF: